sensor_id;sensor_type;location;lat;lon;timestamp;pressure;altitude;pressure_sealevel;temperature;humidity
29485;BME280;16440;59.494;17.978;2022-09-21T00:00:38;102035.81;;;2.57;100.00
29485;BME280;16440;59.494;17.978;2022-09-21T00:03:27;102028.69;;;2.54;100.00
29485;BME280;16440;59.494;17.978;2022-09-21T00:06:27;102027.69;;;2.51;100.00
29485;BME280;16440;59.494;17.978;2022-09-21T00:09:26;102040.03;;;2.49;100.00
29485;BME280;16440;59.494;17.978;2022-09-21T00:12:30;102032.81;;;2.45;100.00
29485;BME280;16440;59.494;17.978;2022-09-21T00:15:22;102035.41;;;2.42;100.00
29485;BME280;16440;59.494;17.978;2022-09-21T00:20:58;102037.03;;;2.38;100.00
29485;BME280;16440;59.494;17.978;2022-09-21T00:23:45;102042.34;;;2.38;100.00
29485;BME280;16440;59.494;17.978;2022-09-21T00:26:40;102056.44;;;2.36;100.00
29485;BME280;16440;59.494;17.978;2022-09-21T00:29:30;102051.91;;;2.32;100.00
29485;BME280;16440;59.494;17.978;2022-09-21T00:32:32;102053.59;;;2.30;100.00
29485;BME280;16440;59.494;17.978;2022-09-21T00:35:26;102051.78;;;2.29;100.00
29485;BME280;16440;59.494;17.978;2022-09-21T00:38:29;102050.87;;;2.28;100.00
29485;BME280;16440;59.494;17.978;2022-09-21T00:41:30;102049.09;;;2.27;100.00
29485;BME280;16440;59.494;17.978;2022-09-21T00:44:34;102051.63;;;2.23;100.00
29485;BME280;16440;59.494;17.978;2022-09-21T00:47:34;102055.81;;;2.16;100.00
29485;BME280;16440;59.494;17.978;2022-09-21T00:50:26;102051.34;;;2.13;100.00
29485;BME280;16440;59.494;17.978;2022-09-21T00:53:25;102059.19;;;2.10;100.00
29485;BME280;16440;59.494;17.978;2022-09-21T00:56:19;102051.13;;;2.07;100.00
29485;BME280;16440;59.494;17.978;2022-09-21T01:01:42;102065.34;;;2.09;100.00
29485;BME280;16440;59.494;17.978;2022-09-21T01:04:35;102075.25;;;2.13;100.00
29485;BME280;16440;59.494;17.978;2022-09-21T01:07:39;102069.97;;;2.15;100.00
29485;BME280;16440;59.494;17.978;2022-09-21T01:10:41;102068.16;;;2.14;100.00
29485;BME280;16440;59.494;17.978;2022-09-21T01:13:44;102069.03;;;2.14;100.00
29485;BME280;16440;59.494;17.978;2022-09-21T01:16:42;102067.44;;;2.19;100.00
29485;BME280;16440;59.494;17.978;2022-09-21T01:19:43;102072.12;;;2.27;100.00
29485;BME280;16440;59.494;17.978;2022-09-21T01:22:42;102056.50;;;2.37;100.00
29485;BME280;16440;59.494;17.978;2022-09-21T01:26:01;102065.81;;;2.51;100.00
29485;BME280;16440;59.494;17.978;2022-09-21T01:31:48;102062.22;;;2.79;100.00
29485;BME280;16440;59.494;17.978;2022-09-21T01:34:50;102054.22;;;2.79;100.00
29485;BME280;16440;59.494;17.978;2022-09-21T01:37:36;102065.78;;;2.80;100.00
29485;BME280;16440;59.494;17.978;2022-09-21T01:40:28;102073.91;;;2.86;100.00
29485;BME280;16440;59.494;17.978;2022-09-21T01:43:37;102078.59;;;2.94;100.00
29485;BME280;16440;59.494;17.978;2022-09-21T01:46:25;102064.66;;;3.03;100.00
29485;BME280;16440;59.494;17.978;2022-09-21T02:00:56;102074.56;;;3.40;100.00
29485;BME280;16440;59.494;17.978;2022-09-21T02:03:57;102070.34;;;3.48;100.00
29485;BME280;16440;59.494;17.978;2022-09-21T02:09:35;102070.84;;;3.68;100.00
29485;BME280;16440;59.494;17.978;2022-09-21T02:12:34;102073.75;;;3.75;100.00
29485;BME280;16440;59.494;17.978;2022-09-21T02:15:20;102075.50;;;3.76;100.00
29485;BME280;16440;59.494;17.978;2022-09-21T02:20:57;102089.94;;;3.84;100.00
29485;BME280;16440;59.494;17.978;2022-09-21T02:23:41;102090.13;;;3.92;100.00
29485;BME280;16440;59.494;17.978;2022-09-21T02:26:32;102081.47;;;4.01;100.00
29485;BME280;16440;59.494;17.978;2022-09-21T02:29:31;102089.59;;;4.07;100.00
29485;BME280;16440;59.494;17.978;2022-09-21T02:32:41;102082.62;;;4.12;100.00
29485;BME280;16440;59.494;17.978;2022-09-21T02:35:54;102088.88;;;4.12;100.00
29485;BME280;16440;59.494;17.978;2022-09-21T02:38:38;102082.69;;;4.13;100.00
29485;BME280;16440;59.494;17.978;2022-09-21T02:41:42;102094.31;;;4.17;100.00
29485;BME280;16440;59.494;17.978;2022-09-21T02:44:49;102085.44;;;4.18;100.00
29485;BME280;16440;59.494;17.978;2022-09-21T02:47:37;102090.03;;;4.25;100.00
29485;BME280;16440;59.494;17.978;2022-09-21T02:50:30;102083.91;;;4.29;100.00
29485;BME280;16440;59.494;17.978;2022-09-21T02:53:31;102084.94;;;4.34;100.00
29485;BME280;16440;59.494;17.978;2022-09-21T02:56:27;102088.59;;;4.39;100.00
29485;BME280;16440;59.494;17.978;2022-09-21T02:59:35;102087.81;;;4.43;100.00
29485;BME280;16440;59.494;17.978;2022-09-21T03:02:27;102095.84;;;4.45;100.00
29485;BME280;16440;59.494;17.978;2022-09-21T03:05:22;102102.94;;;4.44;100.00
29485;BME280;16440;59.494;17.978;2022-09-21T03:10:44;102098.63;;;4.49;100.00
29485;BME280;16440;59.494;17.978;2022-09-21T03:13:35;102103.94;;;4.49;100.00
29485;BME280;16440;59.494;17.978;2022-09-21T03:16:26;102102.22;;;4.51;100.00
29485;BME280;16440;59.494;17.978;2022-09-21T03:19:06;102105.81;;;4.53;100.00
29485;BME280;16440;59.494;17.978;2022-09-21T03:21:55;102110.25;;;4.53;100.00
29485;BME280;16440;59.494;17.978;2022-09-21T03:24:37;102112.09;;;4.55;100.00
29485;BME280;16440;59.494;17.978;2022-09-21T03:27:38;102107.78;;;4.60;100.00
29485;BME280;16440;59.494;17.978;2022-09-21T03:30:30;102110.41;;;4.59;100.00
29485;BME280;16440;59.494;17.978;2022-09-21T03:33:28;102114.87;;;4.61;100.00
29485;BME280;16440;59.494;17.978;2022-09-21T03:38:41;102111.50;;;4.68;100.00
29485;BME280;16440;59.494;17.978;2022-09-21T03:41:24;102105.31;;;4.71;100.00
29485;BME280;16440;59.494;17.978;2022-09-21T03:46:43;102098.41;;;4.79;100.00
29485;BME280;16440;59.494;17.978;2022-09-21T03:49:34;102102.66;;;4.71;100.00
29485;BME280;16440;59.494;17.978;2022-09-21T03:52:26;102111.50;;;4.68;100.00
29485;BME280;16440;59.494;17.978;2022-09-21T03:55:11;102116.72;;;4.64;100.00
29485;BME280;16440;59.494;17.978;2022-09-21T04:00:39;102106.81;;;4.58;100.00
29485;BME280;16440;59.494;17.978;2022-09-21T04:03:44;102113.00;;;4.56;100.00
29485;BME280;16440;59.494;17.978;2022-09-21T04:06:30;102103.94;;;4.49;100.00
29485;BME280;16440;59.494;17.978;2022-09-21T04:09:13;102108.28;;;4.44;100.00
29485;BME280;16440;59.494;17.978;2022-09-21T04:14:42;102109.44;;;4.19;100.00
29485;BME280;16440;59.494;17.978;2022-09-21T04:17:29;102111.84;;;4.09;100.00
29485;BME280;16440;59.494;17.978;2022-09-21T04:20:22;102116.81;;;3.93;100.00
29485;BME280;16440;59.494;17.978;2022-09-21T04:25:50;102123.12;;;3.64;100.00
29485;BME280;16440;59.494;17.978;2022-09-21T04:28:36;102122.88;;;3.55;100.00
29485;BME280;16440;59.494;17.978;2022-09-21T04:31:24;102122.72;;;3.49;100.00
29485;BME280;16440;59.494;17.978;2022-09-21T04:36:46;102117.87;;;3.34;100.00
29485;BME280;16440;59.494;17.978;2022-09-21T04:39:36;102121.25;;;3.29;100.00
29485;BME280;16440;59.494;17.978;2022-09-21T04:48:26;102128.87;;;3.48;100.00
29485;BME280;16440;59.494;17.978;2022-09-21T04:51:18;102126.59;;;3.60;100.00
29485;BME280;16440;59.494;17.978;2022-09-21T04:54:14;102119.62;;;3.65;100.00
29485;BME280;16440;59.494;17.978;2022-09-21T04:59:45;102117.97;;;3.70;100.00
29485;BME280;16440;59.494;17.978;2022-09-21T05:02:30;102118.78;;;3.68;100.00
29485;BME280;16440;59.494;17.978;2022-09-21T05:05:18;102125.78;;;3.64;100.00
29485;BME280;16440;59.494;17.978;2022-09-21T05:10:41;102126.41;;;3.54;100.00
29485;BME280;16440;59.494;17.978;2022-09-21T05:13:36;102131.91;;;3.62;100.00
29485;BME280;16440;59.494;17.978;2022-09-21T05:16:24;102136.62;;;3.72;100.00
29485;BME280;16440;59.494;17.978;2022-09-21T05:19:15;102127.06;;;3.78;100.00
29485;BME280;16440;59.494;17.978;2022-09-21T05:24:35;102135.91;;;3.77;100.00
29485;BME280;16440;59.494;17.978;2022-09-21T05:27:22;102126.88;;;3.72;100.00
29485;BME280;16440;59.494;17.978;2022-09-21T05:32:48;102140.03;;;3.66;100.00
29485;BME280;16440;59.494;17.978;2022-09-21T05:35:41;102139.09;;;3.64;100.00
29485;BME280;16440;59.494;17.978;2022-09-21T05:38:29;102147.88;;;3.60;100.00
29485;BME280;16440;59.494;17.978;2022-09-21T05:41:14;102150.44;;;3.57;100.00
29485;BME280;16440;59.494;17.978;2022-09-21T05:46:44;102158.28;;;3.51;100.00
29485;BME280;16440;59.494;17.978;2022-09-21T05:49:45;102146.66;;;3.49;100.00
29485;BME280;16440;59.494;17.978;2022-09-21T05:52:38;102144.84;;;3.46;100.00
29485;BME280;16440;59.494;17.978;2022-09-21T05:55:39;102155.50;;;3.48;100.00
29485;BME280;16440;59.494;17.978;2022-09-21T05:58:35;102150.06;;;3.43;100.00
29485;BME280;16440;59.494;17.978;2022-09-21T06:01:34;102158.91;;;3.42;100.00
29485;BME280;16440;59.494;17.978;2022-09-21T06:04:27;102152.78;;;3.45;100.00
29485;BME280;16440;59.494;17.978;2022-09-21T06:07:21;102154.53;;;3.44;100.00
29485;BME280;16440;59.494;17.978;2022-09-21T06:12:45;102160.06;;;3.52;100.00
29485;BME280;16440;59.494;17.978;2022-09-21T06:15:24;102163.03;;;3.95;100.00
29485;BME280;16440;59.494;17.978;2022-09-21T06:20:35;102163.41;;;4.11;100.00
29485;BME280;16440;59.494;17.978;2022-09-21T06:23:13;102161.78;;;4.16;100.00
29485;BME280;16440;59.494;17.978;2022-09-21T06:25:56;102163.81;;;4.26;100.00
29485;BME280;16440;59.494;17.978;2022-09-21T06:28:41;102169.47;;;4.39;100.00
29485;BME280;16440;59.494;17.978;2022-09-21T06:31:20;102162.81;;;4.58;100.00
29485;BME280;16440;59.494;17.978;2022-09-21T06:42:37;102161.47;;;5.59;100.00
29485;BME280;16440;59.494;17.978;2022-09-21T15:13:56;102138.81;;;12.04;100.00
29485;BME280;16440;59.494;17.978;2022-09-21T15:16:58;102136.03;;;12.15;100.00
29485;BME280;16440;59.494;17.978;2022-09-21T15:19:39;102138.72;;;12.21;100.00
29485;BME280;16440;59.494;17.978;2022-09-21T15:22:18;102142.25;;;12.24;100.00
29485;BME280;16440;59.494;17.978;2022-09-21T15:25:00;102135.06;;;12.25;100.00
29485;BME280;16440;59.494;17.978;2022-09-21T15:27:35;102136.84;;;12.26;100.00
29485;BME280;16440;59.494;17.978;2022-09-21T15:30:24;102140.47;;;12.25;100.00
29485;BME280;16440;59.494;17.978;2022-09-21T15:33:15;102137.78;;;12.23;100.00
29485;BME280;16440;59.494;17.978;2022-09-21T15:38:40;102142.31;;;12.18;100.00
29485;BME280;16440;59.494;17.978;2022-09-21T15:41:51;102138.75;;;12.15;100.00
29485;BME280;16440;59.494;17.978;2022-09-21T15:44:43;102144.19;;;12.07;100.00
29485;BME280;16440;59.494;17.978;2022-09-21T15:47:33;102149.66;;;12.01;100.00
29485;BME280;16440;59.494;17.978;2022-09-21T15:50:22;102144.28;;;11.97;100.00
29485;BME280;16440;59.494;17.978;2022-09-21T15:55:35;102147.06;;;11.78;100.00
29485;BME280;16440;59.494;17.978;2022-09-21T16:01:24;102143.53;;;11.60;100.00
29485;BME280;16440;59.494;17.978;2022-09-21T16:06:44;102140.97;;;11.37;100.00
29485;BME280;16440;59.494;17.978;2022-09-21T16:09:41;102153.56;;;11.32;100.00
29485;BME280;16440;59.494;17.978;2022-09-21T16:12:39;102157.19;;;11.22;100.00
29485;BME280;16440;59.494;17.978;2022-09-21T16:15:28;102151.87;;;11.01;100.00
29485;BME280;16440;59.494;17.978;2022-09-21T16:20:54;102158.25;;;10.59;100.00
29485;BME280;16440;59.494;17.978;2022-09-21T16:23:37;102160.06;;;10.40;100.00
29485;BME280;16440;59.494;17.978;2022-09-21T16:26:22;102170.81;;;10.20;100.00
29485;BME280;16440;59.494;17.978;2022-09-21T16:31:45;102165.34;;;9.88;100.00
29485;BME280;16440;59.494;17.978;2022-09-21T16:34:31;102176.94;;;9.75;100.00
29485;BME280;16440;59.494;17.978;2022-09-21T16:37:26;102175.09;;;9.60;100.00
29485;BME280;16440;59.494;17.978;2022-09-21T16:40:23;102175.06;;;9.47;100.00
29485;BME280;16440;59.494;17.978;2022-09-21T16:42:59;102172.34;;;9.35;100.00
29485;BME280;16440;59.494;17.978;2022-09-21T16:45:48;102182.13;;;9.27;100.00
29485;BME280;16440;59.494;17.978;2022-09-21T16:48:33;102191.06;;;9.16;100.00
29485;BME280;16440;59.494;17.978;2022-09-21T16:51:08;102179.34;;;9.07;100.00
